Capitol Island, Maine
Current Conditions -  °F | °C
As of 1:53 PM on Friday 24 Oct 2014 (Local Time) from KIWI Reporting Station
Overcast Overcast  
Wind Chill: 50°   Ceiling: 1400
Heat Index: 50°   Visibility: 10mi
Dew Point: 45°   Wind: 5mph
Humidity: 83%   Direction: NA
Pressure: 29.66"   Gusts: NA
Location:  43.854°N, 69.611°W
Report Text: KIWI 241753Z AUTO VRB04KT 10SM OVC014 10/07 A2966 RMK AO2 SLP045 60002 T01000072 10100 20083 57011
Loading
Personal Weather Stations






























Interactive Weather Map
Tropical Storm Tracking
New forecast layout! Learn more

10-Day Weather Forecast

Advertisements
Track Severe Weather on mobile